createdAt,value
2019-02-15T00:01:53.550Z,12.73
2019-02-15T00:04:20.997Z,11.67
2019-02-15T00:06:48.408Z,12.80
2019-02-15T00:09:15.867Z,12.87
2019-02-15T00:11:43.278Z,13.03
2019-02-15T00:14:10.723Z,10.87
2019-02-15T00:16:38.142Z,10.90
2019-02-15T00:19:11.491Z,10.63
2019-02-15T00:21:38.901Z,11.03
2019-02-15T00:24:06.359Z,10.90
2019-02-15T00:26:33.786Z,11.10
2019-02-15T00:29:01.206Z,11.13
2019-02-15T00:31:28.653Z,10.30
2019-02-15T00:33:56.076Z,10.33
2019-02-15T00:36:23.514Z,10.43
2019-02-15T00:38:50.936Z,10.53
2019-02-15T00:41:18.384Z,11.53
2019-02-15T00:43:45.816Z,12.10
2019-02-15T00:46:28.349Z,11.10
2019-02-15T00:48:55.765Z,9.93
2019-02-15T00:51:38.059Z,9.67
2019-02-15T00:54:05.499Z,9.63
2019-02-15T00:56:35.717Z,9.67
2019-02-15T00:59:06.091Z,9.97
2019-02-15T01:01:33.532Z,10.13
2019-02-15T01:04:10.088Z,11.13
2019-02-15T01:06:43.722Z,11.70
2019-02-15T01:09:29.588Z,11.83
2019-02-15T01:12:02.876Z,13.37
2019-02-15T01:14:30.314Z,12.07
2019-02-15T01:16:57.750Z,12.93
2019-02-15T01:19:25.206Z,11.27
2019-02-15T01:21:52.623Z,11.77
2019-02-15T01:24:20.067Z,12.83
2019-02-15T01:26:47.481Z,12.73
2019-02-15T01:29:14.927Z,12.70
2019-02-15T01:31:42.379Z,14.97
2019-02-15T01:34:18.833Z,11.70
2019-02-15T01:36:46.275Z,12.10
2019-02-15T01:39:22.516Z,14.40
2019-02-15T01:41:52.582Z,19.47
2019-02-15T01:44:22.937Z,17.97
2019-02-15T01:46:50.382Z,11.57
2019-02-15T01:49:17.826Z,10.53
2019-02-15T01:51:45.263Z,11.33
2019-02-15T01:54:12.682Z,11.70
2019-02-15T01:56:40.120Z,11.17
2019-02-15T01:59:07.541Z,11.20
2019-02-15T02:01:34.993Z,11.80
2019-02-15T02:04:02.417Z,13.57
2019-02-15T02:06:29.867Z,12.47
2019-02-15T02:08:57.327Z,12.43
2019-02-15T02:11:24.779Z,12.50
2019-02-15T02:13:52.210Z,12.80
2019-02-15T02:16:19.626Z,13.73
2019-02-15T02:18:47.074Z,12.87
2019-02-15T02:21:14.518Z,12.13
2019-02-15T02:23:41.974Z,12.40
2019-02-15T02:26:09.386Z,12.60
2019-02-15T02:28:36.836Z,14.13
2019-02-15T02:31:04.265Z,12.77
2019-02-15T02:33:31.694Z,13.37
2019-02-15T02:35:59.140Z,12.90
2019-02-15T02:38:26.575Z,13.43
2019-02-15T02:40:54.013Z,13.77
2019-02-15T02:43:21.427Z,12.70
2019-02-15T02:45:48.865Z,12.03
2019-02-15T02:48:16.330Z,14.70
2019-02-15T02:50:43.743Z,12.33
2019-02-15T02:53:11.164Z,11.73
2019-02-15T02:55:38.623Z,12.20
2019-02-15T02:58:06.041Z,12.43
2019-02-15T03:00:33.990Z,11.63
2019-02-15T03:03:00.892Z,11.60
2019-02-15T03:05:28.328Z,11.50
2019-02-15T03:07:55.751Z,12.13
2019-02-15T03:10:23.188Z,13.37
2019-02-15T03:12:50.610Z,12.77
2019-02-15T03:15:18.055Z,12.27
2019-02-15T03:17:45.486Z,12.30
2019-02-15T03:20:12.904Z,12.83
2019-02-15T03:22:40.344Z,12.53
2019-02-15T03:25:07.784Z,12.77
2019-02-15T03:27:35.202Z,13.37
2019-02-15T03:30:02.657Z,11.70
2019-02-15T03:32:30.189Z,12.67
2019-02-15T03:34:57.537Z,11.93
2019-02-15T03:37:24.998Z,11.80
2019-02-15T03:39:52.404Z,12.07
2019-02-15T03:42:19.854Z,13.10
2019-02-15T03:44:47.305Z,13.00
2019-02-15T03:47:14.747Z,13.43
2019-02-15T03:49:42.176Z,13.00
2019-02-15T03:52:09.589Z,15.10
2019-02-15T03:54:37.045Z,15.20
2019-02-15T03:57:04.464Z,14.73
2019-02-15T03:59:31.915Z,14.27
2019-02-15T04:01:59.341Z,14.13
2019-02-15T04:04:26.768Z,17.10
2019-02-15T04:06:54.196Z,16.30
2019-02-15T04:09:21.632Z,15.10
2019-02-15T04:11:49.067Z,15.43
2019-02-15T04:14:16.486Z,15.17
2019-02-15T04:16:43.929Z,14.30
2019-02-15T04:19:11.351Z,14.63
2019-02-15T04:21:38.796Z,13.50
2019-02-15T04:24:06.234Z,13.43
2019-02-15T04:26:33.690Z,13.43
2019-02-15T04:29:01.117Z,13.27
2019-02-15T04:31:28.545Z,14.20
2019-02-15T04:33:55.983Z,14.53
2019-02-15T04:36:23.406Z,12.77
2019-02-15T04:38:50.844Z,13.10
2019-02-15T04:41:18.256Z,15.60
2019-02-15T04:43:45.696Z,13.47
2019-02-15T04:46:13.114Z,16.70
2019-02-15T04:48:40.568Z,14.27
2019-02-15T04:51:08.003Z,14.57
2019-02-15T04:53:35.451Z,15.20
2019-02-15T04:56:02.837Z,13.07
2019-02-15T04:58:30.285Z,14.10
2019-02-15T05:00:57.732Z,13.87
2019-02-15T05:03:25.138Z,13.43
2019-02-15T05:05:52.585Z,13.10
2019-02-15T05:08:20.040Z,14.20
2019-02-15T05:10:47.451Z,14.47
2019-02-15T05:13:14.990Z,13.87
2019-02-15T05:15:42.410Z,15.47
2019-02-15T05:18:09.837Z,14.10
2019-02-15T05:20:37.332Z,14.63
2019-02-15T05:23:04.758Z,14.67
2019-02-15T05:25:32.191Z,15.50
2019-02-15T05:27:59.605Z,14.63
2019-02-15T05:30:27.030Z,15.50
2019-02-15T05:32:54.474Z,15.07
2019-02-15T05:35:21.913Z,14.33
2019-02-15T05:37:49.353Z,12.80
2019-02-15T05:40:16.796Z,14.60
2019-02-15T05:42:44.223Z,12.70
2019-02-15T05:45:11.652Z,12.90
2019-02-15T05:47:39.098Z,14.30
2019-02-15T05:50:06.524Z,15.10
2019-02-15T05:52:33.950Z,14.87
2019-02-15T05:55:01.421Z,12.40
2019-02-15T05:57:28.834Z,13.87
2019-02-15T05:59:56.254Z,15.00
2019-02-15T06:02:23.700Z,13.80
2019-02-15T06:04:51.127Z,10.67
2019-02-15T06:07:18.578Z,12.47
2019-02-15T06:09:46.016Z,12.50
2019-02-15T06:12:13.430Z,12.03
2019-02-15T06:14:40.870Z,13.43
2019-02-15T06:17:08.333Z,13.10
2019-02-15T06:19:35.753Z,12.57
2019-02-15T06:22:03.193Z,13.50
2019-02-15T06:24:30.611Z,16.97
2019-02-15T06:26:58.052Z,14.97
2019-02-15T06:29:25.471Z,14.73
2019-02-15T06:31:52.920Z,14.57
2019-02-15T06:34:20.337Z,14.43
2019-02-15T06:36:47.775Z,14.63
2019-02-15T06:39:15.203Z,13.73
2019-02-15T06:41:42.619Z,14.47
2019-02-15T06:44:10.069Z,15.25
2019-02-15T06:46:37.506Z,15.77
2019-02-15T06:49:04.915Z,15.10
2019-02-15T06:51:32.373Z,13.20
2019-02-15T06:53:59.795Z,13.40
2019-02-15T06:56:27.253Z,13.30
2019-02-15T06:59:00.635Z,12.70
2019-02-15T07:01:28.045Z,13.53
2019-02-15T07:04:04.462Z,13.03
2019-02-15T07:06:31.886Z,12.93
2019-02-15T07:08:59.297Z,12.40
2019-02-15T07:11:26.783Z,13.73
2019-02-15T07:13:54.196Z,14.33
2019-02-15T07:16:21.639Z,12.93
2019-02-15T07:18:49.057Z,12.20
2019-02-15T07:21:16.493Z,13.33
2019-02-15T07:23:43.919Z,12.53
2019-02-15T07:26:11.372Z,12.43
2019-02-15T07:28:38.882Z,13.70
2019-02-15T07:31:06.258Z,13.50
2019-02-15T07:33:33.710Z,15.33
2019-02-15T07:36:01.158Z,13.37
2019-02-15T07:38:28.582Z,14.73
2019-02-15T07:40:56.028Z,14.37
2019-02-15T07:43:23.446Z,14.33
2019-02-15T07:45:50.879Z,15.37
2019-02-15T07:48:18.313Z,13.87
2019-02-15T07:50:45.736Z,15.90
2019-02-15T07:53:13.173Z,13.63
2019-02-15T07:55:40.631Z,13.30
2019-02-15T07:58:08.059Z,13.10
2019-02-15T08:00:35.501Z,14.20
2019-02-15T08:03:02.935Z,14.40
2019-02-15T08:05:30.378Z,13.97
2019-02-15T08:07:57.820Z,12.77
2019-02-15T08:10:25.242Z,11.67
2019-02-15T08:12:52.690Z,12.03
2019-02-15T08:15:20.116Z,12.80
2019-02-15T08:17:47.563Z,11.17
2019-02-15T08:20:14.981Z,11.27
2019-02-15T08:22:42.428Z,11.40
2019-02-15T08:25:09.847Z,11.27
2019-02-15T08:27:37.294Z,10.73
2019-02-15T08:30:04.744Z,10.30
2019-02-15T08:32:32.177Z,10.77
2019-02-15T08:34:59.616Z,18.40
2019-02-15T08:37:27.033Z,11.57
2019-02-15T08:39:54.471Z,11.17
2019-02-15T08:42:21.881Z,8.77
2019-02-15T08:44:49.319Z,9.20
2019-02-15T08:47:16.752Z,7.90
2019-02-15T08:49:44.190Z,9.90
2019-02-15T08:52:11.591Z,9.60
2019-02-15T08:54:39.031Z,10.00
2019-02-15T08:57:06.445Z,9.73
2019-02-15T08:59:33.881Z,9.33
2019-02-15T09:02:04.127Z,8.90
2019-02-15T09:04:31.562Z,10.03
2019-02-15T09:06:58.999Z,10.73
2019-02-15T09:09:26.413Z,8.93
2019-02-15T09:11:53.881Z,8.13
2019-02-15T09:14:21.284Z,8.03
2019-02-15T09:16:48.699Z,7.73
2019-02-15T09:19:16.135Z,8.03
2019-02-15T09:21:43.580Z,8.57
2019-02-15T09:24:11.006Z,8.03
2019-02-15T09:26:38.417Z,8.27
2019-02-15T09:29:05.870Z,8.23
2019-02-15T09:31:33.277Z,7.30
2019-02-15T09:34:00.687Z,8.67
2019-02-15T09:36:28.130Z,8.50
2019-02-15T09:38:55.529Z,7.40
2019-02-15T09:41:22.965Z,7.53
2019-02-15T09:43:50.381Z,7.30
2019-02-15T09:46:19.984Z,7.90
2019-02-15T09:48:45.229Z,7.33
2019-02-15T09:51:12.661Z,8.53
2019-02-15T09:53:40.098Z,7.30
2019-02-15T09:56:07.528Z,7.23
2019-02-15T09:58:34.944Z,6.70
2019-02-15T10:01:02.385Z,7.33
2019-02-15T10:03:29.797Z,7.43
2019-02-15T10:05:57.208Z,7.77
2019-02-15T10:08:24.639Z,6.60
2019-02-15T10:10:52.073Z,7.13
2019-02-15T10:13:19.485Z,7.80
2019-02-15T10:15:46.919Z,8.13
2019-02-15T10:18:14.357Z,8.60
2019-02-15T10:20:41.765Z,7.30
2019-02-15T10:23:09.207Z,6.90
2019-02-15T10:25:36.618Z,7.27
2019-02-15T10:28:04.037Z,6.77
2019-02-15T10:30:31.472Z,6.87
2019-02-15T10:32:58.887Z,6.87
2019-02-15T10:35:26.317Z,6.40
2019-02-15T10:37:53.723Z,6.63
2019-02-15T10:40:21.157Z,6.90
2019-02-15T10:42:48.594Z,6.47
2019-02-15T10:45:15.994Z,5.90
2019-02-15T10:47:43.421Z,6.07
2019-02-15T10:50:10.817Z,6.23
2019-02-15T10:52:38.245Z,5.90
2019-02-15T10:55:05.653Z,5.47
2019-02-15T10:57:33.089Z,5.83
2019-02-15T11:00:00.504Z,6.13
2019-02-15T11:02:27.922Z,5.77
2019-02-15T11:04:55.349Z,5.83
2019-02-15T11:07:22.786Z,5.53
2019-02-15T11:09:50.212Z,6.07
2019-02-15T11:12:17.641Z,5.83
2019-02-15T11:14:45.062Z,5.60
2019-02-15T11:17:12.455Z,5.83
2019-02-15T11:19:39.885Z,6.03
2019-02-15T11:22:07.303Z,5.63
2019-02-15T11:24:34.741Z,5.50
2019-02-15T11:27:02.178Z,5.30
2019-02-15T11:29:29.602Z,6.23
2019-02-15T11:31:57.039Z,5.20
2019-02-15T11:34:24.446Z,5.63
2019-02-15T11:36:51.858Z,5.47
2019-02-15T11:39:19.288Z,5.30
2019-02-15T11:41:46.750Z,4.97
2019-02-15T11:44:14.151Z,5.37
2019-02-15T11:46:41.576Z,5.40
2019-02-15T11:49:08.996Z,5.90
2019-02-15T11:51:36.451Z,4.97
2019-02-15T11:54:03.918Z,4.93
2019-02-15T11:56:31.283Z,5.37
2019-02-15T11:58:58.693Z,5.40
2019-02-15T12:01:26.117Z,5.50
2019-02-15T12:03:53.526Z,5.30
2019-02-15T12:06:20.950Z,5.00
2019-02-15T12:08:48.374Z,5.30
2019-02-15T12:11:15.776Z,5.10
2019-02-15T12:13:43.236Z,5.27
2019-02-15T12:16:10.609Z,4.73
2019-02-15T12:18:38.069Z,4.67
2019-02-15T12:21:05.516Z,5.10
2019-02-15T12:23:32.919Z,4.87
2019-02-15T12:26:00.321Z,5.73
2019-02-15T12:28:27.755Z,5.07
2019-02-15T12:30:55.177Z,4.90
2019-02-15T12:33:22.607Z,4.83
2019-02-15T12:35:50.031Z,5.30
2019-02-15T12:38:17.462Z,5.00
2019-02-15T12:40:44.875Z,5.27
2019-02-15T12:43:12.298Z,4.37
2019-02-15T12:45:39.724Z,5.40
2019-02-15T12:48:07.198Z,4.93
2019-02-15T12:50:34.548Z,4.87
2019-02-15T12:53:01.967Z,5.00
2019-02-15T12:55:29.400Z,5.67
2019-02-15T12:57:56.809Z,4.97
2019-02-15T13:00:24.238Z,4.47
2019-02-15T13:02:51.651Z,4.23
2019-02-15T13:05:19.085Z,4.43
2019-02-15T13:07:46.508Z,4.27
2019-02-15T13:10:19.641Z,4.50
2019-02-15T13:12:47.068Z,4.40
2019-02-15T13:15:14.475Z,4.37
2019-02-15T13:17:41.881Z,4.40
2019-02-15T13:20:09.303Z,4.40
2019-02-15T13:22:36.713Z,4.40
2019-02-15T13:25:04.138Z,4.30
2019-02-15T13:27:31.569Z,3.67
2019-02-15T13:29:58.971Z,3.13
2019-02-15T13:32:26.375Z,4.40
2019-02-15T13:34:53.814Z,5.10
2019-02-15T13:37:21.245Z,3.13
2019-02-15T13:39:48.662Z,3.20
2019-02-15T13:42:16.091Z,2.93
2019-02-15T13:44:43.503Z,3.60
2019-02-15T13:47:10.922Z,2.80
2019-02-15T13:49:38.359Z,2.43
2019-02-15T13:52:05.783Z,2.50
2019-02-15T13:54:33.206Z,2.53
2019-02-15T13:57:00.610Z,2.67
2019-02-15T13:59:28.050Z,3.10
2019-02-15T14:01:55.454Z,2.70
2019-02-15T14:04:22.897Z,2.70
2019-02-15T14:06:52.973Z,2.40
2019-02-15T14:09:20.426Z,2.47
2019-02-15T14:11:47.826Z,2.53
2019-02-15T14:14:15.230Z,2.90
2019-02-15T14:16:42.665Z,2.90
2019-02-15T14:19:10.075Z,2.73
2019-02-15T14:21:44.209Z,2.60
2019-02-15T14:24:04.908Z,2.50
2019-02-15T14:26:32.343Z,2.40
2019-02-15T14:28:59.746Z,2.53
2019-02-15T14:31:27.184Z,2.60
2019-02-15T14:33:54.627Z,2.00
2019-02-15T14:36:22.008Z,2.30
2019-02-15T14:38:49.447Z,2.40
2019-02-15T14:41:16.846Z,2.67
2019-02-15T14:43:44.294Z,2.40
2019-02-15T14:46:11.697Z,2.13
2019-02-15T14:48:39.140Z,2.57
2019-02-15T14:51:06.545Z,2.43
2019-02-15T14:53:33.980Z,2.37
2019-02-15T14:56:01.406Z,2.50
2019-02-15T14:58:28.821Z,3.10
2019-02-15T15:00:56.242Z,2.83
2019-02-15T15:03:23.662Z,2.60
2019-02-15T15:05:51.124Z,3.10
2019-02-15T15:08:18.498Z,2.60
2019-02-15T15:10:45.924Z,2.40
2019-02-15T15:13:13.360Z,2.87
2019-02-15T15:15:40.767Z,3.50
2019-02-15T15:18:13.260Z,2.70
2019-02-15T15:20:35.592Z,2.53
2019-02-15T15:23:03.003Z,2.57
2019-02-15T15:25:30.434Z,2.47
2019-02-15T15:27:57.868Z,2.67
2019-02-15T15:30:25.272Z,2.47
2019-02-15T15:32:52.744Z,2.83
2019-02-15T15:35:20.183Z,2.50
2019-02-15T15:37:47.596Z,2.57
2019-02-15T15:40:15.034Z,2.60
2019-02-15T15:42:42.452Z,2.40
2019-02-15T15:45:09.897Z,3.00
2019-02-15T15:47:37.343Z,3.40
2019-02-15T15:50:04.758Z,3.10
2019-02-15T15:52:32.194Z,2.80
2019-02-15T15:54:59.622Z,2.97
2019-02-15T15:57:27.064Z,3.07
2019-02-15T15:59:54.467Z,3.30
2019-02-15T16:02:21.892Z,3.70
2019-02-15T16:04:49.326Z,3.60
2019-02-15T16:07:16.745Z,4.10
2019-02-15T16:09:44.194Z,3.47
2019-02-15T16:12:11.635Z,3.87
2019-02-15T16:14:39.036Z,3.57
2019-02-15T16:17:06.453Z,3.67
2019-02-15T16:19:40.422Z,4.20
2019-02-15T16:22:01.317Z,5.20
2019-02-15T16:24:28.749Z,5.07
2019-02-15T16:26:56.171Z,4.37
2019-02-15T16:29:23.609Z,4.40
2019-02-15T16:31:51.017Z,4.67
2019-02-15T16:34:18.437Z,4.77
2019-02-15T16:36:45.879Z,5.07
2019-02-15T16:39:13.279Z,4.80
2019-02-15T16:41:40.714Z,4.20
2019-02-15T16:44:08.151Z,6.80
2019-02-15T16:46:35.587Z,7.20
2019-02-15T16:49:03.040Z,5.50
2019-02-15T16:51:30.485Z,5.33
2019-02-15T16:53:57.924Z,4.37
2019-02-15T16:56:25.368Z,4.83
2019-02-15T16:58:52.757Z,4.40
2019-02-15T17:01:20.192Z,4.93
2019-02-15T17:03:47.601Z,4.80
2019-02-15T17:06:15.096Z,4.30
2019-02-15T17:08:42.497Z,4.50
2019-02-15T17:11:09.934Z,5.23
2019-02-15T17:13:37.368Z,5.13
2019-02-15T17:16:04.797Z,5.07
2019-02-15T17:18:32.239Z,4.93
2019-02-15T17:20:59.638Z,4.83
2019-02-15T17:23:27.102Z,5.23
2019-02-15T17:25:54.516Z,4.47
2019-02-15T17:28:22.020Z,4.30
2019-02-15T17:30:49.463Z,4.70
2019-02-15T17:33:16.973Z,5.20
2019-02-15T17:35:44.439Z,4.57
2019-02-15T17:38:11.823Z,5.00
2019-02-15T17:40:39.281Z,4.80
2019-02-15T17:43:06.711Z,5.30
2019-02-15T17:45:34.174Z,4.90
2019-02-15T17:48:01.637Z,5.87
2019-02-15T17:50:30.026Z,6.10
2019-02-15T17:52:57.470Z,5.83
2019-02-15T17:55:24.927Z,5.57
2019-02-15T17:57:52.400Z,5.40
2019-02-15T18:00:19.905Z,5.30
2019-02-15T18:02:47.394Z,6.60
2019-02-15T18:05:17.771Z,6.23
2019-02-15T18:07:48.083Z,5.70
2019-02-15T18:10:15.451Z,6.23
2019-02-15T18:12:42.936Z,6.90
2019-02-15T18:15:10.336Z,6.33
2019-02-15T18:17:37.791Z,7.80
2019-02-15T18:20:05.354Z,8.43
2019-02-15T18:22:32.771Z,9.23
2019-02-15T18:25:00.321Z,9.13
2019-02-15T18:27:27.719Z,8.87
2019-02-15T18:29:55.168Z,8.13
2019-02-15T18:32:22.672Z,7.50
2019-02-15T18:34:50.136Z,8.67
2019-02-15T18:37:17.579Z,8.43
2019-02-15T18:39:44.997Z,8.43
2019-02-15T18:42:12.436Z,8.80
2019-02-15T18:44:39.887Z,8.40
2019-02-15T18:47:07.332Z,8.80
2019-02-15T18:49:34.782Z,8.53
2019-02-15T18:52:02.541Z,8.80
2019-02-15T18:54:29.989Z,9.30
2019-02-15T18:56:57.468Z,8.60
2019-02-15T18:59:24.912Z,9.63
2019-02-15T19:01:52.398Z,9.37
2019-02-15T19:04:19.797Z,8.10
2019-02-15T19:06:47.260Z,9.50
2019-02-15T19:09:14.659Z,8.63
2019-02-15T19:11:42.122Z,9.57
2019-02-15T19:14:09.568Z,10.80
2019-02-15T19:16:37.007Z,11.80
2019-02-15T19:19:04.467Z,11.00
2019-02-15T19:21:31.903Z,11.30
2019-02-15T19:23:59.329Z,11.37
2019-02-15T19:26:26.809Z,11.40
2019-02-15T19:28:54.247Z,10.80
2019-02-15T19:31:21.705Z,9.43
2019-02-15T19:33:49.157Z,11.90
2019-02-15T19:36:16.644Z,11.10
2019-02-15T19:38:44.058Z,10.30
2019-02-15T19:41:11.477Z,9.80
2019-02-15T19:43:38.954Z,10.33
2019-02-15T19:46:06.449Z,10.13
2019-02-15T19:48:33.877Z,11.10
2019-02-15T19:51:01.301Z,14.70
2019-02-15T19:53:28.746Z,11.37
2019-02-15T19:55:56.179Z,11.83
2019-02-15T19:58:23.641Z,11.57
2019-02-15T20:00:51.089Z,12.17
2019-02-15T20:03:18.585Z,13.07
2019-02-15T20:05:46.076Z,12.37
2019-02-15T20:08:13.451Z,11.57
2019-02-15T20:10:40.898Z,11.17
2019-02-15T20:13:08.311Z,11.00
2019-02-15T20:15:35.754Z,11.40
2019-02-15T20:18:03.192Z,11.70
2019-02-15T20:20:30.632Z,14.17
2019-02-15T20:22:58.046Z,13.53
2019-02-15T20:25:25.480Z,13.93
2019-02-15T20:27:52.909Z,15.30
2019-02-15T20:30:22.996Z,17.00
2019-02-15T20:32:50.415Z,18.43
2019-02-15T20:35:17.894Z,14.37
2019-02-15T20:37:45.313Z,12.60
2019-02-15T20:40:12.761Z,12.53
2019-02-15T20:42:40.179Z,14.70
2019-02-15T20:45:07.627Z,14.07
2019-02-15T20:47:35.054Z,15.00
2019-02-15T20:50:02.478Z,14.07
2019-02-15T20:52:30.046Z,14.60
2019-02-15T20:54:57.459Z,15.37
2019-02-15T20:57:24.876Z,16.13
2019-02-15T20:59:52.336Z,16.40
2019-02-15T21:02:19.748Z,19.40
2019-02-15T21:04:47.194Z,17.23
2019-02-15T21:07:14.635Z,15.67
2019-02-15T21:09:42.052Z,15.37
2019-02-15T21:12:09.521Z,16.03
2019-02-15T21:14:36.943Z,17.17
2019-02-15T21:17:04.412Z,17.93
2019-02-15T21:19:31.842Z,15.00
2019-02-15T21:21:59.393Z,18.40
2019-02-15T21:24:26.822Z,15.97
2019-02-15T21:26:54.240Z,15.87
2019-02-15T21:29:21.679Z,14.07
2019-02-15T21:31:49.105Z,13.97
2019-02-15T21:34:16.602Z,13.57
2019-02-15T21:36:44.102Z,14.53
2019-02-15T21:39:11.604Z,14.27
2019-02-15T21:41:39.236Z,15.20
2019-02-15T21:44:06.569Z,17.30
2019-02-15T21:46:34.093Z,13.83
2019-02-15T21:49:01.601Z,12.10
2019-02-15T21:51:29.132Z,11.50
2019-02-15T21:53:56.743Z,10.37
2019-02-15T21:56:25.677Z,9.70
2019-02-15T21:58:53.094Z,9.50
2019-02-15T22:01:20.731Z,9.73
2019-02-15T22:03:48.205Z,10.10
2019-02-15T22:06:15.621Z,9.67
2019-02-15T22:08:43.042Z,9.90
2019-02-15T22:11:10.471Z,9.30
2019-02-15T22:13:37.918Z,9.77
2019-02-15T22:16:05.340Z,8.97
2019-02-15T22:18:32.788Z,9.33
2019-02-15T22:21:00.278Z,10.17
2019-02-15T22:23:27.695Z,9.40
2019-02-15T22:25:55.142Z,11.00
2019-02-15T22:28:22.579Z,8.93
2019-02-15T22:30:50.015Z,9.30
2019-02-15T22:33:17.426Z,8.43
2019-02-15T22:35:44.871Z,8.23
2019-02-15T22:38:12.350Z,8.33
2019-02-15T22:40:39.880Z,7.60
2019-02-15T22:43:16.236Z,8.20
2019-02-15T22:45:43.648Z,7.97
2019-02-15T22:48:11.094Z,7.67
2019-02-15T22:50:38.531Z,8.23
2019-02-15T22:53:06.002Z,7.70
2019-02-15T22:55:33.400Z,7.73
2019-02-15T22:58:00.834Z,8.40
2019-02-15T23:00:28.299Z,8.57
2019-02-15T23:02:55.713Z,8.70
2019-02-15T23:05:23.136Z,8.80
2019-02-15T23:07:50.603Z,8.23
2019-02-15T23:10:18.042Z,7.97
2019-02-15T23:12:45.465Z,8.57
2019-02-15T23:15:12.898Z,8.23
2019-02-15T23:17:40.342Z,8.47
2019-02-15T23:20:07.754Z,7.83
2019-02-15T23:22:35.192Z,8.13
2019-02-15T23:25:02.604Z,8.43
2019-02-15T23:27:30.042Z,9.13
2019-02-15T23:29:57.477Z,9.10
2019-02-15T23:32:24.902Z,8.57
2019-02-15T23:34:52.333Z,8.67
2019-02-15T23:37:19.747Z,9.47
2019-02-15T23:39:47.241Z,8.57
2019-02-15T23:42:14.709Z,9.40
2019-02-15T23:44:42.124Z,8.80
2019-02-15T23:47:09.569Z,9.73
2019-02-15T23:49:36.986Z,9.10
2019-02-15T23:52:04.423Z,9.77
2019-02-15T23:54:31.844Z,9.20
2019-02-15T23:56:59.280Z,9.23
2019-02-15T23:59:26.711Z,9.53
